Time;durP1;ratioP1;P1;durP2;ratioP2;P2;SDS_P1;SDS_P2;PMS_P1;PMS_P2;Temp;Humidity;BMP_temperature;BMP_pressure;BME280_temperature;BME280_humidity;BME280_pressure;Samples;Min_cycle;Max_cycle;Signal;HPM_P1;HPM_P2
2023/06/21 00:00:47;;;;;;;32.13;19.20;;;19.90;99.90;;;;;;5012900;28;20105;-37
2023/06/21 00:03:13;;;;;;;34.03;18.98;;;19.80;99.90;;;;;;5013045;28;20025;-39
2023/06/21 00:05:39;;;;;;;36.15;17.92;;;19.90;99.90;;;;;;5013001;28;20069;-37
2023/06/21 00:08:05;;;;;;;32.65;18.52;;;19.90;99.90;;;;;;5012703;28;20022;-45
2023/06/21 00:10:31;;;;;;;32.88;18.77;;;19.80;99.90;;;;;;4975170;28;1096799;-37
2023/06/21 00:12:57;;;;;;;32.38;16.33;;;19.80;99.90;;;;;;5013720;28;20419;-37
2023/06/21 00:15:24;;;;;;;32.15;18.50;;;19.80;99.90;;;;;;5013396;28;20040;-37
2023/06/21 00:17:50;;;;;;;29.02;17.08;;;19.80;99.90;;;;;;5013928;28;20030;-37
2023/06/21 00:20:17;;;;;;;34.90;19.05;;;19.80;99.90;;;;;;5013294;28;20163;-38
2023/06/21 00:22:46;;;;;;;35.08;19.27;;;19.80;99.90;;;;;;5013395;28;20232;-37
2023/06/21 00:25:13;;;;;;;31.67;18.63;;;19.80;99.90;;;;;;5013111;28;20030;-37
2023/06/21 00:27:39;;;;;;;32.67;17.55;;;19.80;99.90;;;;;;5013202;28;20057;-37
2023/06/21 00:30:06;;;;;;;33.50;19.08;;;19.80;99.90;;;;;;5013437;28;20054;-37
2023/06/21 00:32:31;;;;;;;31.65;18.15;;;19.80;99.90;;;;;;5013189;28;20048;-38
2023/06/21 00:34:57;;;;;;;29.90;18.00;;;19.80;99.90;;;;;;5012991;28;20506;-37
2023/06/21 00:37:26;;;;;;;30.73;17.65;;;19.80;99.90;;;;;;5013058;28;20544;-38
2023/06/21 00:39:52;;;;;;;37.58;19.65;;;19.80;99.90;;;;;;5012973;28;20377;-41
2023/06/21 00:42:18;;;;;;;34.78;18.20;;;19.70;99.90;;;;;;5013012;28;20420;-37
2023/06/21 00:44:44;;;;;;;31.92;17.17;;;19.70;99.90;;;;;;5012821;28;20084;-38
2023/06/21 00:47:09;;;;;;;36.67;18.50;;;19.70;99.90;;;;;;5012984;28;20033;-39
2023/06/21 00:49:35;;;;;;;29.73;16.95;;;19.70;99.90;;;;;;5012915;28;20030;-37
2023/06/21 00:52:02;;;;;;;32.38;17.50;;;19.60;99.90;;;;;;5013283;28;20018;-38
2023/06/21 00:54:35;;;;;;;30.17;15.98;;;19.60;99.90;;;;;;5012889;28;20094;-37
2023/06/21 00:57:04;;;;;;;27.50;16.15;;;19.60;99.90;;;;;;5012903;28;20034;-38
2023/06/21 00:59:31;;;;;;;28.15;15.00;;;19.60;99.90;;;;;;5012933;28;20196;-37
2023/06/21 01:01:58;;;;;;;26.15;15.18;;;19.60;99.90;;;;;;5013815;28;20034;-39
2023/06/21 01:04:25;;;;;;;24.00;14.63;;;19.60;99.90;;;;;;5015755;28;20038;-40
2023/06/21 01:07:03;;;;;;;26.65;14.63;;;19.60;99.90;;;;;;5016328;28;20292;-38
2023/06/21 01:09:57;;;;;;;27.58;14.35;;;19.50;99.90;;;;;;5016544;28;20041;-72
2023/06/21 01:12:52;;;;;;;28.40;15.73;;;19.50;99.90;;;;;;5015395;28;20504;-36
2023/06/21 01:15:30;;;;;;;25.75;13.80;;;19.40;99.90;;;;;;5016679;28;20026;-36
2023/06/21 01:17:57;;;;;;;;;;;19.50;99.90;;;;;;5017019;28;20209;-37
2023/06/21 01:20:29;;;;;;;26.52;14.00;;;19.50;99.90;;;;;;5016593;28;19909;-36
2023/06/21 01:23:17;;;;;;;24.33;14.15;;;19.50;99.90;;;;;;5016605;28;20026;-37
2023/06/21 01:26:03;;;;;;;29.05;15.45;;;19.40;99.90;;;;;;5016596;28;20367;-38
2023/06/21 01:29:11;;;;;;;30.92;15.05;;;19.50;99.90;;;;;;5016704;28;20049;-38
2023/06/21 01:31:39;;;;;;;35.92;17.33;;;19.50;99.90;;;;;;5016308;28;20109;-37
2023/06/21 01:34:05;;;;;;;28.90;17.05;;;19.40;99.90;;;;;;5016462;28;20493;-56
2023/06/21 01:36:32;;;;;;;29.02;15.65;;;19.40;99.90;;;;;;5016305;28;20026;-36
2023/06/21 01:38:57;;;;;;;30.13;17.15;;;19.40;99.90;;;;;;5016296;28;20021;-39
2023/06/21 01:41:25;;;;;;;35.92;16.95;;;19.40;99.90;;;;;;5016384;28;20555;-37
2023/06/21 01:43:52;;;;;;;32.53;16.77;;;19.30;99.90;;;;;;5016043;28;20026;-36
2023/06/21 01:46:20;;;;;;;21.67;12.07;;;19.30;99.90;;;;;;5016116;28;20105;-36
2023/06/21 01:48:46;;;;;;;;;;;19.40;99.90;;;;;;5016530;28;20852;-37
2023/06/21 01:51:13;;;;;;;27.52;14.55;;;19.40;99.90;;;;;;5016055;28;19996;-34
2023/06/21 01:53:40;;;;;;;33.47;16.45;;;19.40;99.90;;;;;;5016020;28;20014;-37
2023/06/21 01:56:14;;;;;;;36.70;17.77;;;19.40;99.90;;;;;;5015988;28;20026;-37
2023/06/21 01:58:41;;;;;;;30.83;17.15;;;19.40;99.90;;;;;;5015926;28;20323;-36
2023/06/21 02:01:09;;;;;;;33.45;18.90;;;19.50;99.90;;;;;;5016141;28;20422;-37
2023/06/21 02:03:39;;;;;;;30.33;17.83;;;19.50;99.90;;;;;;5015739;28;20482;-37
2023/06/21 02:06:07;;;;;;;32.22;17.40;;;19.50;99.90;;;;;;5016020;28;20018;-33
2023/06/21 02:08:33;;;;;;;32.45;18.42;;;19.50;99.90;;;;;;5015697;28;20057;-31
2023/06/21 02:11:02;;;;;;;33.03;17.27;;;19.50;99.90;;;;;;5015444;28;20046;-30
2023/06/21 02:13:28;;;;;;;34.83;19.17;;;19.50;99.90;;;;;;5015494;28;20025;-33
2023/06/21 02:15:54;;;;;;;33.83;19.40;;;19.50;99.90;;;;;;5015560;28;20026;-34
2023/06/21 02:18:24;;;;;;;38.20;18.77;;;19.50;99.90;;;;;;5014222;28;20026;-30
2023/06/21 02:20:50;;;;;;;32.47;19.30;;;19.50;99.90;;;;;;5015466;28;20072;-37
2023/06/21 02:23:16;;;;;;;35.88;18.98;;;19.50;99.90;;;;;;5015351;28;20021;-35
2023/06/21 02:25:42;;;;;;;35.55;19.55;;;19.50;99.90;;;;;;5013995;28;20025;-30
2023/06/21 02:28:08;;;;;;;35.08;18.98;;;19.50;99.90;;;;;;5015306;28;20026;-35
2023/06/21 02:30:33;;;;;;;34.25;18.77;;;19.50;99.90;;;;;;5015497;28;20148;-34
2023/06/21 02:33:00;;;;;;;35.78;19.48;;;19.50;99.90;;;;;;5015136;28;20030;-30
2023/06/21 02:35:25;;;;;;;36.25;18.95;;;19.50;99.90;;;;;;5015160;28;20092;-30
2023/06/21 02:37:51;;;;;;;41.28;19.40;;;19.50;99.90;;;;;;5015138;28;20030;-34
2023/06/21 02:40:17;;;;;;;35.10;18.48;;;19.50;99.90;;;;;;5015351;28;20033;-33
2023/06/21 02:42:42;;;;;;;38.90;19.35;;;19.50;99.90;;;;;;5015075;28;20033;-32
2023/06/21 02:45:09;;;;;;;38.22;19.42;;;19.50;99.90;;;;;;5014896;28;20072;-33
2023/06/21 02:47:35;;;;;;;35.10;18.05;;;19.40;99.90;;;;;;5014987;28;20028;-31
2023/06/21 02:50:02;;;;;;;37.58;18.58;;;19.40;99.90;;;;;;5014907;28;20022;-33
2023/06/21 02:52:27;;;;;;;39.53;19.80;;;19.40;99.90;;;;;;5014901;28;20033;-35
2023/06/21 02:54:53;;;;;;;32.53;18.30;;;19.40;99.90;;;;;;5014801;28;20030;-32
2023/06/21 02:57:19;;;;;;;37.25;18.08;;;19.40;99.90;;;;;;5014713;28;20483;-33
2023/06/21 02:59:45;;;;;;;37.25;19.35;;;19.30;99.90;;;;;;5014705;28;20497;-31
2023/06/21 03:02:11;;;;;;;40.40;20.77;;;19.30;99.90;;;;;;5014788;28;20100;-34
2023/06/21 03:04:37;;;;;;;37.67;20.25;;;19.30;99.90;;;;;;5014801;28;20463;-38
2023/06/21 03:07:05;;;;;;;39.80;19.92;;;19.30;99.90;;;;;;5014639;28;20513;-33
2023/06/21 03:09:31;;;;;;;40.63;20.13;;;19.30;99.90;;;;;;5014304;28;20057;-35
2023/06/21 03:11:57;;;;;;;41.03;20.98;;;19.30;99.90;;;;;;5014570;28;20097;-33
2023/06/21 03:14:23;;;;;;;39.83;20.05;;;19.30;99.90;;;;;;5014501;28;20058;-32
2023/06/21 03:16:49;;;;;;;35.28;18.75;;;19.30;99.90;;;;;;5014406;28;20022;-33
2023/06/21 03:19:16;;;;;;;36.83;18.10;;;19.20;99.90;;;;;;5014252;28;20021;-31
2023/06/21 03:21:42;;;;;;;37.97;20.00;;;19.30;99.90;;;;;;5014323;28;20022;-33
2023/06/21 03:24:08;;;;;;;37.40;19.55;;;19.20;99.90;;;;;;5013454;28;20036;-31
2023/06/21 03:26:35;;;;;;;41.83;19.83;;;19.30;99.90;;;;;;5014059;28;20065;-30
2023/06/21 03:29:02;;;;;;;38.40;19.92;;;19.30;99.90;;;;;;5014452;28;20029;-34
2023/06/21 03:31:28;;;;;;;40.70;20.77;;;19.30;99.90;;;;;;5014409;28;20022;-33
2023/06/21 03:33:54;;;;;;;44.92;20.85;;;19.30;99.90;;;;;;5014014;28;20483;-31
2023/06/21 03:36:20;;;;;;;37.15;18.67;;;19.30;99.90;;;;;;5014036;28;20108;-33
2023/06/21 03:38:46;;;;;;;33.65;18.23;;;19.30;99.90;;;;;;5014013;28;20058;-31
2023/06/21 03:41:11;;;;;;;34.85;18.52;;;19.20;99.90;;;;;;5013952;28;20124;-37
2023/06/21 03:43:37;;;;;;;37.75;18.85;;;19.30;99.90;;;;;;5014088;28;20535;-33
2023/06/21 03:46:03;;;;;;;36.35;18.23;;;19.20;99.90;;;;;;5013879;28;20029;-32
2023/06/21 03:48:28;;;;;;;40.45;20.27;;;19.20;99.90;;;;;;5013834;28;20386;-33
2023/06/21 03:50:54;;;;;;;44.38;19.00;;;19.20;99.90;;;;;;5013799;28;20030;-31
2023/06/21 03:53:20;;;;;;;36.88;20.15;;;19.20;99.90;;;;;;5013781;28;20387;-33
2023/06/21 03:55:45;;;;;;;40.90;19.60;;;19.20;99.90;;;;;;5012462;28;20509;-33
2023/06/21 03:58:14;;;;;;;40.83;19.10;;;19.20;99.90;;;;;;5013695;28;20073;-33
2023/06/21 04:00:40;;;;;;;38.58;18.33;;;19.20;99.90;;;;;;5013650;28;20034;-32
2023/06/21 04:03:05;;;;;;;36.90;18.05;;;19.20;99.90;;;;;;5013633;28;20534;-31
2023/06/21 04:05:31;;;;;;;37.13;19.35;;;19.20;99.90;;;;;;5013498;28;20079;-30
2023/06/21 04:07:58;;;;;;;40.53;18.83;;;19.30;99.90;;;;;;5013526;28;20072;-42
2023/06/21 04:10:24;;;;;;;;;;;19.30;99.90;;;;;;5013972;28;20096;-33
2023/06/21 04:12:50;;;;;;;29.92;16.48;;;19.30;99.90;;;;;;5013485;28;19910;-37
2023/06/21 04:15:16;;;;;;;44.58;19.15;;;19.30;99.90;;;;;;5013644;28;20033;-32
2023/06/21 04:17:43;;;;;;;34.53;17.35;;;19.30;99.90;;;;;;5013300;28;20029;-32
2023/06/21 04:20:11;;;;;;;39.70;18.10;;;19.40;99.90;;;;;;5013328;28;20080;-33
2023/06/21 04:22:39;;;;;;;35.30;18.00;;;19.40;99.90;;;;;;5013339;28;20030;-34
2023/06/21 04:25:04;;;;;;;33.42;17.25;;;19.40;99.90;;;;;;5013392;28;20069;-32
2023/06/21 04:27:30;;;;;;;41.60;17.98;;;19.40;99.90;;;;;;5013258;28;20018;-32
2023/06/21 04:29:56;;;;;;;36.90;17.33;;;19.40;99.90;;;;;;5013157;28;20026;-40
2023/06/21 04:32:21;;;;;;;32.47;17.38;;;19.40;99.90;;;;;;5013148;28;20026;-30
2023/06/21 04:34:49;;;;;;;34.58;15.27;;;19.40;99.90;;;;;;5013321;28;20356;-35
2023/06/21 04:37:15;;;;;;;29.02;15.95;;;19.40;99.90;;;;;;5013230;28;20149;-30
2023/06/21 04:39:40;;;;;;;33.78;16.25;;;19.40;99.90;;;;;;5013027;28;20526;-36
2023/06/21 04:42:07;;;;;;;30.02;15.07;;;19.40;99.90;;;;;;5012919;28;20395;-32
2023/06/21 04:44:33;;;;;;;27.20;15.00;;;19.40;99.90;;;;;;5013215;28;20375;-32
2023/06/21 04:47:01;;;;;;;35.72;14.93;;;19.50;99.90;;;;;;5013190;28;20101;-35
2023/06/21 04:49:29;;;;;;;32.95;15.70;;;19.50;99.90;;;;;;5012961;28;20100;-33
2023/06/21 04:51:57;;;;;;;29.10;15.38;;;19.60;99.90;;;;;;5012916;28;20033;-33
2023/06/21 04:54:24;;;;;;;32.00;16.45;;;19.60;99.90;;;;;;5013146;28;20516;-33
2023/06/21 04:56:50;;;;;;;33.20;16.40;;;19.60;99.90;;;;;;5013159;28;20072;-31
2023/06/21 04:59:17;;;;;;;31.45;14.80;;;19.60;99.90;;;;;;5012895;28;20022;-36
2023/06/21 05:01:43;;;;;;;25.55;13.07;;;19.70;99.90;;;;;;5012902;28;20367;-34
2023/06/21 05:04:08;;;;;;;25.27;13.68;;;19.70;99.90;;;;;;5012747;28;20018;-36
2023/06/21 05:06:34;;;;;;;32.00;13.48;;;19.80;99.90;;;;;;5012747;28;20022;-35
2023/06/21 05:09:00;;;;;;;29.73;14.88;;;19.90;99.90;;;;;;5013070;28;20501;-32
2023/06/21 05:11:25;;;;;;;29.58;14.05;;;19.90;99.90;;;;;;5012011;28;20041;-35
2023/06/21 05:13:51;;;;;;;28.10;14.55;;;20.00;99.90;;;;;;5013040;28;20517;-33
2023/06/21 05:16:17;;;;;;;28.75;12.57;;;20.00;99.90;;;;;;5012729;28;20105;-30
2023/06/21 05:18:43;;;;;;;23.95;12.45;;;20.00;99.90;;;;;;5012679;28;20026;-30
2023/06/21 05:21:09;;;;;;;29.52;13.60;;;20.10;99.90;;;;;;5012638;28;20242;-35
2023/06/21 05:23:34;;;;;;;31.13;13.65;;;20.10;99.90;;;;;;5012797;28;20497;-33
2023/06/21 05:26:00;;;;;;;26.10;12.73;;;20.10;99.90;;;;;;5012913;28;20022;-34
2023/06/21 05:28:26;;;;;;;24.33;13.07;;;20.10;99.90;;;;;;5012597;28;20030;-32
2023/06/21 05:30:51;;;;;;;22.73;11.80;;;20.00;99.90;;;;;;5011270;28;20483;-32
2023/06/21 05:33:17;;;;;;;21.90;12.40;;;20.00;99.90;;;;;;5012479;28;20045;-33
2023/06/21 05:35:43;;;;;;;19.92;11.00;;;20.20;99.90;;;;;;5012574;28;20022;-31
2023/06/21 05:38:08;;;;;;;24.33;12.57;;;20.30;99.90;;;;;;5012544;28;20054;-30
2023/06/21 05:40:34;;;;;;;24.58;11.13;;;20.30;99.90;;;;;;5012447;28;20068;-33
2023/06/21 05:43:05;;;;;;;25.92;11.40;;;20.50;99.90;;;;;;5011126;28;20025;-36
2023/06/21 05:45:31;;;;;;;20.15;10.55;;;20.50;99.90;;;;;;5012382;28;20479;-34
2023/06/21 05:47:57;;;;;;;20.52;10.05;;;20.50;99.90;;;;;;5013515;28;20030;-31
2023/06/21 05:50:23;;;;;;;19.17;10.10;;;20.60;99.90;;;;;;5016081;28;20090;-34
2023/06/21 05:52:49;;;;;;;21.55;9.57;;;20.60;99.90;;;;;;5015980;28;20018;-33
2023/06/21 05:55:14;;;;;;;16.42;8.38;;;20.60;99.90;;;;;;5015929;28;20037;-38
2023/06/21 05:57:40;;;;;;;13.55;8.52;;;20.60;99.90;;;;;;5016190;28;20025;-33
2023/06/21 06:00:09;;;;;;;16.42;7.43;;;20.60;99.90;;;;;;5015827;28;20034;-31
2023/06/21 06:02:35;;;;;;;10.90;7.40;;;20.50;99.90;;;;;;5014438;28;20398;-31
2023/06/21 06:05:01;;;;;;;13.82;7.32;;;20.50;99.90;;;;;;5016004;28;20105;-32
2023/06/21 06:07:26;;;;;;;14.35;6.72;;;20.40;99.90;;;;;;5015948;28;20153;-35
2023/06/21 06:09:52;;;;;;;11.07;6.25;;;20.50;99.90;;;;;;5015627;28;20509;-32
2023/06/21 06:12:18;;;;;;;10.30;5.97;;;20.50;99.90;;;;;;5015352;28;20113;-32
2023/06/21 06:14:44;;;;;;;11.82;6.75;;;20.50;99.90;;;;;;5015862;28;20049;-31
2023/06/21 06:17:10;;;;;;;9.75;4.90;;;20.40;99.90;;;;;;5015772;28;20022;-32
2023/06/21 06:19:35;;;;;;;10.90;5.80;;;20.50;99.90;;;;;;5015665;28;20032;-33
2023/06/21 06:22:01;;;;;;;10.68;4.88;;;20.50;99.90;;;;;;5015307;28;20073;-31
2023/06/21 06:24:27;;;;;;;6.38;4.90;;;20.60;99.90;;;;;;5015280;28;20436;-31
2023/06/21 06:26:53;;;;;;;8.43;4.47;;;20.90;99.90;;;;;;5015546;28;20100;-31
2023/06/21 06:29:19;;;;;;;7.93;4.97;;;21.10;99.90;;;;;;5014056;28;20386;-38
2023/06/21 06:31:45;;;;;;;7.38;4.47;;;21.10;99.90;;;;;;5015238;28;20022;-34
2023/06/21 06:34:10;;;;;;;6.75;4.13;;;21.30;99.90;;;;;;5015289;28;20026;-34
2023/06/21 06:36:36;;;;;;;5.85;3.60;;;21.90;99.90;;;;;;5015070;28;20018;-35
2023/06/21 06:39:02;;;;;;;4.93;2.95;;;22.20;99.90;;;;;;5015056;28;20030;-31
2023/06/21 06:41:27;;;;;;;7.53;3.05;;;22.20;99.90;;;;;;5015032;28;20037;-32
2023/06/21 06:43:53;;;;;;;5.78;2.72;;;22.40;99.90;;;;;;5014926;28;20088;-32
2023/06/21 06:46:19;;;;;;;6.40;2.72;;;22.80;99.90;;;;;;5014996;28;20101;-32
2023/06/21 06:48:44;;;;;;;10.20;2.97;;;23.00;99.90;;;;;;5015208;28;20486;-32
2023/06/21 06:51:10;;;;;;;6.00;3.08;;;23.00;99.90;;;;;;5014861;28;20482;-33
2023/06/21 06:53:35;;;;;;;5.60;2.90;;;22.80;99.90;;;;;;5013536;28;20026;-33
2023/06/21 06:56:01;;;;;;;4.10;2.38;;;23.00;99.90;;;;;;5014712;28;20058;-34
2023/06/21 06:58:30;;;;;;;5.05;1.90;;;23.00;99.90;;;;;;5014549;28;20077;-33
2023/06/21 07:00:56;;;;;;;7.82;2.58;;;23.20;99.90;;;;;;5014062;28;20014;-32
2023/06/21 07:03:21;;;;;;;11.80;2.75;;;23.50;99.90;;;;;;5014824;28;20025;-34
2023/06/21 07:05:48;;;;;;;2.40;2.20;;;24.30;99.90;;;;;;5014504;28;20018;-32
2023/06/21 07:08:14;;;;;;;5.95;2.05;;;25.20;99.90;;;;;;5014565;28;20026;-31
2023/06/21 07:10:40;;;;;;;4.70;2.35;;;26.50;99.90;;;;;;5014764;28;20020;-37
2023/06/21 07:13:06;;;;;;;3.80;2.47;;;27.60;99.90;;;;;;5014266;28;20049;-34
2023/06/21 07:15:33;;;;;;;3.83;2.00;;;28.00;99.90;;;;;;5014662;28;20544;-36
2023/06/21 07:17:59;;;;;;;6.05;2.35;;;27.90;99.90;;;;;;5014310;28;20106;-34
2023/06/21 07:20:24;;;;;;;3.15;1.70;;;27.00;99.90;;;;;;5014362;28;20105;-36
2023/06/21 07:22:50;;;;;;;3.70;1.70;;;26.20;99.90;;;;;;5014284;28;20474;-32
2023/06/21 07:25:16;;;;;;;7.93;2.30;;;26.20;99.90;;;;;;5014045;28;20336;-35
2023/06/21 07:27:42;;;;;;;3.50;1.50;;;26.30;99.90;;;;;;5014219;28;20510;-37
2023/06/21 07:30:08;;;;;;;2.88;1.88;;;26.90;99.90;;;;;;5014187;28;20037;-35
2023/06/21 07:32:34;;;;;;;3.43;1.87;;;27.30;99.90;;;;;;5014128;28;20014;-33
2023/06/21 07:35:01;;;;;;;2.03;1.65;;;27.50;99.90;;;;;;5014229;28;20272;-35
2023/06/21 07:37:27;;;;;;;9.52;2.10;;;27.60;99.90;;;;;;5014045;28;20037;-33
2023/06/21 07:39:55;;;;;;;3.03;1.48;;;27.50;99.90;;;;;;5014265;28;20045;-36
2023/06/21 07:42:20;;;;;;;;;;;27.50;99.90;;;;;;5014354;28;20061;-35
2023/06/21 07:44:46;;;;;;;5.67;1.93;;;27.40;99.90;;;;;;5013885;28;19949;-36
2023/06/21 07:47:12;;;;;;;1.88;1.65;;;27.40;99.90;;;;;;5014150;28;20032;-38
2023/06/21 07:49:38;;;;;;;2.78;2.03;;;27.20;99.90;;;;;;5013812;28;20072;-34
2023/06/21 07:52:04;;;;;;;1.83;1.63;;;27.10;99.90;;;;;;5012424;28;20026;-34
2023/06/21 07:54:30;;;;;;;7.47;2.40;;;26.80;99.90;;;;;;5013742;28;20022;-36
2023/06/21 07:56:55;;;;;;;4.95;2.55;;;26.50;99.90;;;;;;5012354;28;20148;-32
2023/06/21 07:59:21;;;;;;;2.45;1.77;;;26.10;99.90;;;;;;5028927;28;20026;-34
2023/06/21 08:01:46;;;;;;;5.60;1.60;;;25.80;99.90;;;;;;5012563;28;20033;-31
2023/06/21 08:04:12;;;;;;;2.55;1.63;;;25.90;99.90;;;;;;5013403;28;20429;-32
2023/06/21 08:06:38;;;;;;;4.00;1.70;;;26.20;99.90;;;;;;5013484;28;20497;-33
2023/06/21 08:09:03;;;;;;;3.28;1.90;;;26.50;99.90;;;;;;5013499;28;20499;-32
2023/06/21 08:11:29;;;;;;;4.35;1.80;;;26.90;99.90;;;;;;5012891;28;20050;-35
2023/06/21 08:13:55;;;;;;;3.10;1.42;;;27.10;99.90;;;;;;5013475;28;20026;-34
2023/06/21 08:16:21;;;;;;;2.65;1.48;;;27.40;99.90;;;;;;5013325;28;20045;-34
2023/06/21 08:18:47;;;;;;;3.13;1.65;;;27.20;99.90;;;;;;5013397;28;20033;-32
2023/06/21 08:21:12;;;;;;;2.70;1.67;;;27.40;99.90;;;;;;5013285;28;20499;-31
2023/06/21 08:23:38;;;;;;;2.08;1.60;;;27.50;99.90;;;;;;5013134;28;20068;-35
2023/06/21 08:26:04;;;;;;;3.55;1.30;;;27.70;99.90;;;;;;5013524;28;20520;-31
2023/06/21 08:28:30;;;;;;;2.53;1.60;;;27.80;99.90;;;;;;5013233;28;20018;-36
2023/06/21 08:30:56;;;;;;;;;;;27.90;99.90;;;;;;5013834;28;20352;-32
2023/06/21 08:33:22;;;;;;;2.13;1.80;;;28.10;99.90;;;;;;5013397;28;19955;-35
2023/06/21 08:35:47;;;;;;;4.90;1.43;;;28.30;99.90;;;;;;5013147;28;20104;-34
2023/06/21 08:38:13;;;;;;;5.53;1.70;;;28.20;99.90;;;;;;5013073;28;20041;-32
2023/06/21 08:40:42;;;;;;;1.60;1.50;;;28.30;99.90;;;;;;5013275;28;20030;-46
2023/06/21 08:43:07;;;;;;;2.13;1.08;;;28.50;99.90;;;;;;5013028;28;20596;-30
2023/06/21 08:45:33;;;;;;;2.33;1.33;;;28.60;99.90;;;;;;5012950;28;20120;-32
2023/06/21 08:48:03;;;;;;;0.80;0.80;;;28.70;99.90;;;;;;5012992;28;20026;-36
2023/06/21 08:50:30;;;;;;;2.38;1.00;;;28.80;99.90;;;;;;5012990;28;20024;-33
2023/06/21 08:52:59;;;;;;;2.47;1.33;;;29.10;99.90;;;;;;5012967;28;20418;-32
2023/06/21 08:55:27;;;;;;;1.38;0.95;;;29.30;99.90;;;;;;5012833;28;20029;-32
2023/06/21 08:57:59;;;;;;;1.45;1.13;;;29.50;99.90;;;;;;5013049;28;20018;-33
2023/06/21 09:00:33;;;;;;;1.20;0.93;;;29.50;99.90;;;;;;5012733;28;20026;-32
2023/06/21 09:03:12;;;;;;;3.30;1.13;;;29.40;99.90;;;;;;5012835;28;20018;-34
2023/06/21 09:05:40;;;;;;;1.88;1.30;;;29.50;99.90;;;;;;5013020;28;20029;-32
2023/06/21 09:08:07;;;;;;;1.27;1.17;;;29.70;99.90;;;;;;5012799;28;20022;-32
2023/06/21 09:10:34;;;;;;;;;;;29.60;99.90;;;;;;5013161;28;20026;-31
2023/06/21 09:13:01;;;;;;;2.17;1.55;;;29.40;99.90;;;;;;5012664;28;19917;-34
2023/06/21 09:15:29;;;;;;;3.70;1.25;;;29.10;99.90;;;;;;5012727;28;20060;-35
2023/06/21 09:17:56;;;;;;;1.10;1.00;;;29.00;99.90;;;;;;5012620;28;20040;-31
2023/06/21 09:20:28;;;;;;;2.33;1.52;;;28.90;99.90;;;;;;5012622;28;20029;-35
2023/06/21 09:22:57;;;;;;;2.55;1.35;;;28.70;99.90;;;;;;5013993;28;20030;-33
2023/06/21 09:25:23;;;;;;;4.00;1.50;;;28.40;99.90;;;;;;5016808;28;20018;-32
2023/06/21 09:27:49;;;;;;;2.27;1.57;;;28.20;99.90;;;;;;5016548;28;20479;-30
2023/06/21 09:30:15;;;;;;;2.42;1.77;;;27.90;99.90;;;;;;5016371;28;20018;-35
2023/06/21 09:32:42;;;;;;;2.03;1.50;;;27.50;99.90;;;;;;5016615;28;20022;-32
2023/06/21 09:35:09;;;;;;;4.38;1.73;;;27.30;99.90;;;;;;5016188;28;20084;-32
2023/06/21 09:37:35;;;;;;;;;;;27.20;99.90;;;;;;5016715;28;20062;-33
2023/06/21 09:40:03;;;;;;;4.15;1.42;;;27.00;99.90;;;;;;5016244;28;19905;-33
2023/06/21 09:42:29;;;;;;;4.40;1.30;;;27.00;99.90;;;;;;5016372;28;20072;-35
2023/06/21 09:44:55;;;;;;;5.22;1.60;;;26.90;99.90;;;;;;5016075;28;20491;-30
2023/06/21 09:47:21;;;;;;;7.05;1.77;;;26.80;99.90;;;;;;5016169;28;20030;-35
2023/06/21 09:49:47;;;;;;;3.00;1.38;;;26.40;99.90;;;;;;5016017;28;20034;-32
2023/06/21 09:52:20;;;;;;;1.50;1.40;;;25.80;99.90;;;;;;5015986;28;20025;-35
2023/06/21 09:54:46;;;;;;;2.03;1.08;;;25.70;99.90;;;;;;5016021;28;20076;-34
2023/06/21 09:57:12;;;;;;;7.13;1.45;;;25.80;99.90;;;;;;5015853;28;20105;-34
2023/06/21 09:59:39;;;;;;;4.82;1.38;;;26.00;99.90;;;;;;5015910;28;20038;-35
2023/06/21 10:02:09;;;;;;;1.25;1.13;;;26.00;99.90;;;;;;5015835;28;20104;-32
2023/06/21 10:04:42;;;;;;;4.70;1.27;;;26.20;99.90;;;;;;5015656;28;20034;-35
2023/06/21 10:07:08;;;;;;;1.23;1.13;;;26.70;99.90;;;;;;5015643;28;20050;-35
2023/06/21 10:09:37;;;;;;;2.17;1.30;;;26.90;99.90;;;;;;5015851;28;20526;-39
2023/06/21 10:12:09;;;;;;;2.13;1.73;;;26.80;99.90;;;;;;5015444;28;20046;-34
2023/06/21 10:14:35;;;;;;;4.13;1.45;;;26.90;99.90;;;;;;5015515;28;20029;-34
2023/06/21 10:17:02;;;;;;;2.20;1.35;;;27.00;99.90;;;;;;5015491;28;20026;-32
2023/06/21 10:19:32;;;;;;;3.88;1.40;;;26.60;99.90;;;;;;5015441;28;20115;-33
2023/06/21 10:22:11;;;;;;;1.50;0.90;;;26.70;99.90;;;;;;5015374;28;20021;-47
2023/06/21 10:24:49;;;;;;;1.50;1.30;;;27.10;99.90;;;;;;5015167;28;20511;-32
2023/06/21 10:27:16;;;;;;;1.40;1.30;;;27.10;99.90;;;;;;5015307;28;20410;-34
2023/06/21 10:29:43;;;;;;;1.70;1.20;;;26.70;99.90;;;;;;5015276;28;20022;-39
2023/06/21 10:32:10;;;;;;;2.25;1.52;;;26.30;99.90;;;;;;5015247;28;20075;-31
2023/06/21 10:34:58;;;;;;;4.82;1.35;;;26.30;99.90;;;;;;5014835;28;20554;-36
2023/06/21 10:38:03;;;;;;;2.13;1.35;;;26.50;99.90;;;;;;5014237;28;20038;-31
2023/06/21 10:40:29;;;;;;;2.63;1.70;;;26.70;99.90;;;;;;5014918;28;20041;-33
2023/06/21 10:42:58;;;;;;;3.10;1.27;;;26.40;99.90;;;;;;5015140;28;20394;-33
2023/06/21 10:45:24;;;;;;;2.22;1.52;;;26.40;99.90;;;;;;5014972;28;20018;-39
2023/06/21 10:47:54;;;;;;;3.97;1.40;;;26.20;99.90;;;;;;5015410;28;20045;-36
2023/06/21 10:50:21;;;;;;;1.90;1.55;;;26.00;99.90;;;;;;5015269;28;20018;-31
2023/06/21 10:52:51;;;;;;;3.08;1.50;;;25.90;99.90;;;;;;5013675;28;20474;-34
2023/06/21 10:55:19;;;;;;;4.65;1.67;;;26.00;99.90;;;;;;5014785;28;20034;-33
2023/06/21 10:57:46;;;;;;;6.32;1.40;;;26.20;99.90;;;;;;5014806;28;20034;-33
2023/06/21 11:00:13;;;;;;;1.88;1.33;;;26.30;99.90;;;;;;5014734;28;20064;-37
2023/06/21 11:02:39;;;;;;;2.30;1.73;;;26.50;99.90;;;;;;5014930;28;20525;-34
2023/06/21 11:05:18;;;;;;;3.87;1.37;;;26.50;99.90;;;;;;5014621;28;20505;-31
2023/06/21 11:08:00;;;;;;;2.25;1.33;;;26.30;99.90;;;;;;5014811;28;20656;-31
2023/06/21 11:10:49;;;;;;;7.35;1.48;;;26.20;99.90;;;;;;5014439;28;20471;-34
2023/06/21 11:13:17;;;;;;;3.20;1.70;;;26.40;99.90;;;;;;5014399;28;20042;-35
2023/06/21 11:15:47;;;;;;;3.03;1.30;;;26.50;99.90;;;;;;5014427;28;20056;-41
2023/06/21 11:18:18;;;;;;;3.05;2.28;;;26.50;99.90;;;;;;5014416;28;20371;-36
2023/06/21 11:20:44;;;;;;;1.88;1.63;;;26.60;99.90;;;;;;5014538;28;20030;-36
2023/06/21 11:23:10;;;;;;;2.85;1.70;;;26.40;99.90;;;;;;5012957;28;20525;-34
2023/06/21 11:25:36;;;;;;;9.18;2.13;;;26.20;99.90;;;;;;5014090;28;20436;-32
2023/06/21 11:28:23;;;;;;;2.42;1.98;;;26.10;99.90;;;;;;5014273;28;20038;-32
2023/06/21 11:31:06;;;;;;;3.25;1.90;;;25.80;99.90;;;;;;5014167;28;20036;-32
2023/06/21 11:33:45;;;;;;;5.35;2.30;;;25.40;99.90;;;;;;5013932;28;20022;-34
2023/06/21 11:36:11;;;;;;;5.80;1.73;;;25.30;99.90;;;;;;5014325;28;20018;-37
2023/06/21 11:38:37;;;;;;;3.40;1.80;;;25.40;99.90;;;;;;5014008;28;20041;-32
2023/06/21 11:41:40;;;;;;;3.88;1.90;;;25.50;99.90;;;;;;5014186;28;20030;-31
2023/06/21 11:44:07;;;;;;;4.90;2.25;;;25.40;99.90;;;;;;5013690;28;20033;-30
2023/06/21 11:46:33;;;;;;;3.05;1.95;;;25.10;99.90;;;;;;5011859;28;20052;-35
2023/06/21 11:49:00;;;;;;;2.97;1.65;;;24.90;99.90;;;;;;5014067;28;20479;-33
2023/06/21 11:51:28;;;;;;;3.70;1.60;;;25.00;99.90;;;;;;5013700;28;20026;-35
2023/06/21 11:53:55;;;;;;;1.90;1.65;;;25.30;99.90;;;;;;5013779;28;20096;-33
2023/06/21 11:56:21;;;;;;;2.65;1.60;;;25.60;99.90;;;;;;5013674;28;20030;-30
2023/06/21 11:58:48;;;;;;;4.63;1.70;;;25.90;99.90;;;;;;5013668;28;20030;-31
2023/06/21 12:01:14;;;;;;;3.70;1.45;;;26.30;99.90;;;;;;5013946;28;20426;-33
2023/06/21 12:03:40;;;;;;;3.45;1.50;;;26.80;99.90;;;;;;5013611;28;20105;-32
2023/06/21 12:06:06;;;;;;;3.58;1.45;;;27.20;99.90;;;;;;5012194;28;20180;-34
2023/06/21 12:08:39;;;;;;;3.40;1.95;;;27.40;99.90;;;;;;5013508;28;20034;-30
2023/06/21 12:11:12;;;;;;;1.88;1.67;;;27.30;99.90;;;;;;5013277;28;20029;-33
2023/06/21 12:13:39;;;;;;;4.40;1.88;;;27.40;99.90;;;;;;5013755;28;20483;-34
2023/06/21 12:16:06;;;;;;;3.70;1.58;;;27.50;99.90;;;;;;5013441;28;20022;-30
2023/06/21 12:18:34;;;;;;;2.65;1.52;;;27.30;99.90;;;;;;5013628;28;20036;-34
2023/06/21 12:21:02;;;;;;;3.25;1.73;;;27.20;99.90;;;;;;5013323;28;20025;-33
2023/06/21 12:23:28;;;;;;;2.58;1.55;;;27.00;99.90;;;;;;5013244;28;20030;-34
2023/06/21 12:26:00;;;;;;;3.58;1.70;;;26.80;99.90;;;;;;5013497;28;20022;-32
2023/06/21 12:28:26;;;;;;;1.83;1.60;;;26.70;99.90;;;;;;5013278;28;20025;-46
2023/06/21 12:31:17;;;;;;;2.53;1.58;;;26.70;99.90;;;;;;5013272;28;20049;-52
2023/06/21 12:33:43;;;;;;;7.72;3.30;;;26.90;99.90;;;;;;5013411;28;20026;-40
2023/06/21 12:36:26;;;;;;;7.07;5.18;;;26.80;99.90;;;;;;5013174;28;20025;-42
2023/06/21 12:38:55;;;;;;;11.82;4.82;;;26.20;99.90;;;;;;5013140;28;20402;-38
2023/06/21 12:41:23;;;;;;;16.67;6.07;;;25.30;99.90;;;;;;5013046;28;20038;-40